Time;durP1;ratioP1;P1;durP2;ratioP2;P2;SDS_P1;SDS_P2;PMS_P1;PMS_P2;Temp;Humidity;BMP_temperature;BMP_pressure;BME280_temperature;BME280_humidity;BME280_pressure;Samples;Min_cycle;Max_cycle;Signal;HPM_P1;HPM_P2
2021/01/19 00:00:08;;;;;;;9.23;5.25;;;-1.70;99.90;;;;;;8296250;28;20108;-68
2021/01/19 00:04:08;;;;;;;9.60;4.38;;;-1.60;99.90;;;;;;8297663;28;20029;-69
2021/01/19 00:08:10;;;;;;;9.85;5.80;;;-1.80;99.90;;;;;;8297698;28;20535;-68
2021/01/19 00:12:10;;;;;;;7.78;5.47;;;-1.60;99.90;;;;;;8298542;28;20032;-69
2021/01/19 00:16:11;;;;;;;9.40;5.32;;;-1.90;99.90;;;;;;8296704;28;20025;-69
2021/01/19 00:20:12;;;;;;;10.45;5.60;;;-1.90;99.90;;;;;;8297043;28;20030;-68
2021/01/19 00:24:12;;;;;;;8.95;5.15;;;-1.80;99.90;;;;;;8296991;28;20113;-70
2021/01/19 00:28:13;;;;;;;13.48;5.28;;;-2.00;99.90;;;;;;8296931;28;20515;-69
2021/01/19 00:32:13;;;;;;;9.70;4.15;;;-2.20;99.90;;;;;;8295375;28;20492;-69
2021/01/19 00:36:14;;;;;;;8.18;4.65;;;-2.40;99.90;;;;;;8296533;28;20117;-68
2021/01/19 00:40:15;;;;;;;7.30;3.97;;;-2.40;99.90;;;;;;8296177;28;20026;-69
2021/01/19 00:44:16;;;;;;;13.25;5.38;;;-2.50;99.90;;;;;;8319448;28;20453;-69
2021/01/19 00:48:16;;;;;;;8.35;4.75;;;-2.60;99.90;;;;;;8329114;28;20029;-69
2021/01/19 00:52:17;;;;;;;9.10;4.93;;;-2.50;99.90;;;;;;8328636;28;20033;-69
2021/01/19 00:56:18;;;;;;;7.70;4.10;;;;;;;;;;8327699;28;20032;-69
2021/01/19 01:00:19;;;;;;;5.15;3.45;;;-2.80;99.90;;;;;;8328347;28;20374;-69
2021/01/19 01:04:19;;;;;;;5.15;3.30;;;-2.90;99.90;;;;;;8327318;28;20032;-69
2021/01/19 01:08:20;;;;;;;9.00;3.65;;;-2.90;99.90;;;;;;8328356;28;20033;-69
2021/01/19 01:12:20;;;;;;;8.05;3.70;;;-2.50;99.90;;;;;;8321838;28;20030;-69
2021/01/19 01:16:21;;;;;;;9.35;3.75;;;-2.20;99.90;;;;;;8294952;28;20084;-69
2021/01/19 01:20:21;;;;;;;8.40;2.92;;;-1.90;99.90;;;;;;8293729;28;20038;-69
2021/01/19 01:24:22;;;;;;;5.68;3.30;;;-1.70;99.90;;;;;;8295251;28;20116;-69
2021/01/19 01:28:22;;;;;;;6.03;2.90;;;-1.70;99.90;;;;;;8295064;28;20129;-69
2021/01/19 01:32:23;;;;;;;6.10;3.38;;;-1.60;99.90;;;;;;8294547;28;20030;-69
2021/01/19 01:36:24;;;;;;;9.02;3.28;;;-1.90;99.90;;;;;;8293575;28;20044;-69
2021/01/19 01:40:26;;;;;;;7.45;3.55;;;-1.80;99.90;;;;;;8294392;28;20093;-69
2021/01/19 01:44:27;;;;;;;5.90;3.60;;;-1.80;99.90;;;;;;8295258;28;20061;-69
2021/01/19 01:48:28;;;;;;;6.10;3.42;;;-1.90;99.90;;;;;;8294488;28;20061;-69
2021/01/19 01:52:29;;;;;;;7.13;3.47;;;-1.80;99.90;;;;;;8294366;28;20029;-69
2021/01/19 01:56:30;;;;;;;8.20;4.53;;;-1.70;99.90;;;;;;8292888;28;20488;-69
2021/01/19 02:00:31;;;;;;;9.07;4.00;;;-1.70;99.90;;;;;;8292513;28;20026;-69
2021/01/19 02:04:31;;;;;;;7.85;3.75;;;-1.90;99.90;;;;;;8293816;28;20025;-69
2021/01/19 02:08:59;;;;;;;10.68;4.85;;;-1.80;99.90;;;;;;8292930;28;20025;-69
2021/01/19 02:13:15;;;;;;;8.88;5.15;;;-2.00;99.90;;;;;;8294979;28;20033;-70
2021/01/19 02:17:30;;;;;;;10.05;4.95;;;-2.10;99.90;;;;;;8292225;28;20033;-69
2021/01/19 02:22:09;;;;;;;8.90;4.90;;;-2.20;99.90;;;;;;8292308;28;20029;-69
2021/01/19 02:26:40;;;;;;;7.35;4.43;;;-2.00;99.90;;;;;;8292278;28;20022;-69
2021/01/19 02:30:53;;;;;;;14.77;7.30;;;-1.90;99.90;;;;;;8293399;28;20443;-69
2021/01/19 02:34:59;;;;;;;15.00;7.38;;;-1.80;99.90;;;;;;8293061;28;20026;-69
2021/01/19 02:39:03;;;;;;;13.43;6.38;;;-1.80;99.90;;;;;;8293166;28;20408;-69
2021/01/19 02:43:25;;;;;;;15.68;7.43;;;-1.80;99.90;;;;;;8292825;28;20033;-69
2021/01/19 02:47:25;;;;;;;15.45;8.82;;;-1.90;99.90;;;;;;8291574;28;20093;-69
2021/01/19 02:51:26;;;;;;;16.35;7.90;;;-2.20;99.90;;;;;;8291235;28;20088;-69
2021/01/19 02:55:28;;;;;;;14.00;5.05;;;-2.20;99.90;;;;;;8291164;28;20133;-69
2021/01/19 03:00:03;;;;;;;18.52;8.98;;;-2.10;99.90;;;;;;8289711;28;20058;-69
2021/01/19 03:04:04;;;;;;;16.23;8.20;;;-2.00;99.90;;;;;;8291631;28;20048;-69
2021/01/19 03:08:06;;;;;;;16.38;8.35;;;-1.90;99.90;;;;;;8291409;28;20030;-69
2021/01/19 03:12:11;;;;;;;17.67;8.63;;;-2.20;99.90;;;;;;8293381;28;20034;-69
2021/01/19 03:16:16;;;;;;;17.30;7.85;;;-2.10;99.90;;;;;;8292343;28;20062;-69
2021/01/19 03:20:17;;;;;;;15.10;8.07;;;-2.30;99.90;;;;;;8299246;28;20022;-69
2021/01/19 03:24:17;;;;;;;17.52;8.88;;;-2.50;99.90;;;;;;8298259;28;20056;-69
2021/01/19 03:28:18;;;;;;;15.90;7.85;;;-2.60;99.90;;;;;;8298790;28;20036;-69
2021/01/19 03:32:18;;;;;;;19.23;8.52;;;-2.60;99.90;;;;;;8298661;28;20045;-69
2021/01/19 03:36:19;;;;;;;14.23;7.57;;;-2.40;99.90;;;;;;8298739;28;20069;-69
2021/01/19 03:40:19;;;;;;;18.67;8.40;;;-2.30;99.90;;;;;;8298734;28;20440;-69
2021/01/19 03:44:20;;;;;;;18.63;9.32;;;-2.10;99.90;;;;;;8300404;28;20040;-68
2021/01/19 03:48:20;;;;;;;18.67;9.15;;;-2.00;99.90;;;;;;8299084;28;20028;-69
2021/01/19 03:52:21;;;;;;;9.77;5.38;;;-2.00;99.90;;;;;;8297479;28;20037;-69
2021/01/19 03:56:21;;;;;;;17.08;8.07;;;-1.90;99.90;;;;;;8298622;28;20069;-69
2021/01/19 04:00:22;;;;;;;17.10;8.48;;;-1.90;99.90;;;;;;8298211;28;20030;-68
2021/01/19 04:04:23;;;;;;;13.25;6.90;;;-1.80;99.90;;;;;;8297251;28;20057;-69
2021/01/19 04:08:23;;;;;;;20.05;9.63;;;-1.80;99.90;;;;;;8297010;28;20076;-69
2021/01/19 04:12:24;;;;;;;19.80;9.55;;;-1.70;99.90;;;;;;8299482;28;20529;-69
2021/01/19 04:16:24;;;;;;;17.30;8.40;;;-1.90;99.90;;;;;;8297627;28;20030;-69
2021/01/19 04:20:25;;;;;;;20.17;9.98;;;-2.00;99.90;;;;;;8295809;28;20029;-68
2021/01/19 04:24:25;;;;;;;17.17;8.60;;;-2.00;99.90;;;;;;8295277;28;20038;-69
2021/01/19 04:28:26;;;;;;;17.77;9.05;;;-2.10;99.90;;;;;;8296381;28;20053;-68
2021/01/19 04:32:26;;;;;;;15.20;7.53;;;-2.00;99.90;;;;;;8297101;28;20026;-69
2021/01/19 04:36:27;;;;;;;20.13;9.90;;;-1.90;99.90;;;;;;8397498;22;20465;-68
2021/01/19 04:40:28;;;;;;;21.98;9.85;;;-2.00;99.90;;;;;;8395459;28;20027;-68
2021/01/19 04:44:30;;;;;;;18.23;9.57;;;-2.00;99.90;;;;;;8373087;28;20021;-68
2021/01/19 04:48:31;;;;;;;14.80;7.05;;;-2.00;99.90;;;;;;8362757;28;20476;-69
2021/01/19 04:52:33;;;;;;;21.80;10.32;;;-2.00;99.90;;;;;;8362350;28;20075;-69
2021/01/19 04:56:43;;;;;;;17.08;7.50;;;-2.10;99.90;;;;;;8369091;28;20033;-69
2021/01/19 05:01:07;;;;;;;13.98;7.32;;;-2.10;99.90;;;;;;8395005;28;20400;-69
2021/01/19 05:05:32;;;;;;;21.20;10.35;;;-2.20;99.90;;;;;;8393158;28;20103;-69
2021/01/19 05:09:36;;;;;;;23.13;11.60;;;-2.30;99.90;;;;;;8383807;28;20449;-69
2021/01/19 05:13:53;;;;;;;22.63;11.02;;;-2.30;99.90;;;;;;8380554;28;20028;-69
2021/01/19 05:17:56;;;;;;;19.00;10.43;;;-2.20;99.90;;;;;;8361658;28;20115;-69
2021/01/19 05:21:57;;;;;;;19.98;11.13;;;-2.10;99.90;;;;;;8363827;28;20047;-69
2021/01/19 05:26:00;;;;;;;19.33;10.20;;;-2.20;99.90;;;;;;8361192;28;20071;-69
2021/01/19 05:30:03;;;;;;;21.10;11.18;;;-2.30;99.90;;;;;;8384987;28;20028;-71
2021/01/19 05:34:06;;;;;;;17.15;9.18;;;-2.20;99.90;;;;;;8376495;28;20430;-69
2021/01/19 05:38:08;;;;;;;19.58;10.80;;;-2.10;99.90;;;;;;8387195;28;20099;-73
2021/01/19 05:42:08;;;;;;;19.70;9.85;;;-2.10;99.90;;;;;;8388190;28;20465;-77
2021/01/19 05:46:09;;;;;;;17.25;10.07;;;-2.00;99.90;;;;;;8387948;28;20033;-73
2021/01/19 05:50:10;;;;;;;17.30;9.90;;;-2.00;99.90;;;;;;8391119;28;20047;-73
2021/01/19 05:54:24;;;;;;;19.17;10.32;;;-2.10;99.90;;;;;;8390662;28;20025;-73
2021/01/19 05:58:36;;;;;;;19.90;10.15;;;-2.30;99.90;;;;;;8391433;28;20024;-73
2021/01/19 06:02:43;;;;;;;14.05;7.32;;;-2.20;99.90;;;;;;8391740;28;20078;-72
2021/01/19 06:06:44;;;;;;;20.00;9.80;;;-2.10;99.90;;;;;;8393198;28;20127;-72
2021/01/19 06:10:45;;;;;;;16.92;8.75;;;-2.20;99.90;;;;;;8392748;28;20036;-72
2021/01/19 06:14:51;;;;;;;19.63;8.95;;;-2.20;99.90;;;;;;8391572;28;20021;-73
2021/01/19 06:18:52;;;;;;;18.83;9.02;;;-2.10;99.90;;;;;;8393206;28;20028;-72
2021/01/19 06:23:04;;;;;;;16.67;9.55;;;-2.30;99.90;;;;;;8392994;28;20074;-72
2021/01/19 06:27:06;;;;;;;15.45;8.88;;;-2.40;99.90;;;;;;8393020;28;20390;-73
2021/01/19 06:31:11;;;;;;;22.23;9.90;;;-2.40;99.90;;;;;;8390714;28;20440;-73
2021/01/19 06:35:16;;;;;;;18.00;9.25;;;-2.20;99.90;;;;;;8385803;28;20031;-73
2021/01/19 06:39:36;;;;;;;12.40;7.15;;;-2.10;99.90;;;;;;8392569;28;20031;-73
2021/01/19 06:43:43;;;;;;;18.23;9.73;;;-2.10;99.90;;;;;;8378484;28;20418;-72
2021/01/19 06:47:44;;;;;;;13.10;7.40;;;-2.00;99.90;;;;;;8359319;28;20029;-72
2021/01/19 06:51:58;;;;;;;17.48;9.13;;;-1.90;99.90;;;;;;8358705;28;20028;-72
2021/01/19 06:56:00;;;;;;;17.08;9.63;;;-1.80;99.90;;;;;;8372527;28;20433;-71
2021/01/19 07:00:20;;;;;;;8.88;4.43;;;-1.70;99.90;;;;;;8372342;28;20092;-72
2021/01/19 07:04:25;;;;;;;8.90;4.40;;;-1.70;99.90;;;;;;8369924;28;20021;-72
2021/01/19 07:09:17;;;;;;;9.63;4.82;;;-1.60;99.90;;;;;;8377828;28;20631;-72
2021/01/19 07:13:25;;;;;;;11.98;5.50;;;-1.50;99.90;;;;;;8354841;28;20406;-72
2021/01/19 07:17:57;;;;;;;9.23;5.00;;;-1.50;99.90;;;;;;8373540;28;20020;-72
2021/01/19 07:22:08;;;;;;;14.77;8.35;;;-1.30;99.90;;;;;;8376578;28;20032;-72
2021/01/19 07:26:08;;;;;;;18.58;10.15;;;-1.20;99.90;;;;;;8391800;28;20017;-72
2021/01/19 07:30:10;;;;;;;16.08;9.13;;;-1.20;99.90;;;;;;8391307;28;20024;-73
2021/01/19 07:34:12;;;;;;;10.10;5.10;;;-1.10;99.90;;;;;;8391529;28;20024;-72
2021/01/19 07:38:21;;;;;;;12.82;6.10;;;-1.00;99.90;;;;;;8386232;28;20036;-72
2021/01/19 07:42:23;;;;;;;13.75;7.35;;;-1.00;99.90;;;;;;8362051;28;20041;-72
2021/01/19 07:46:28;;;;;;;18.73;9.95;;;-1.00;99.90;;;;;;8356980;28;20619;-72
2021/01/19 07:50:46;;;;;;;18.98;10.80;;;-0.90;99.90;;;;;;8358103;28;20028;-73
2021/01/19 07:54:47;;;;;;;11.82;5.15;;;-0.90;99.90;;;;;;8364560;28;20116;-72
2021/01/19 07:58:47;;;;;;;10.30;4.72;;;-0.90;99.90;;;;;;8375802;28;20036;-72
2021/01/19 08:02:48;;;;;;;11.63;6.05;;;-0.80;99.90;;;;;;8376297;28;20032;-71
2021/01/19 08:06:49;;;;;;;10.70;6.18;;;-0.80;99.90;;;;;;8381060;28;20036;-71
2021/01/19 08:10:57;;;;;;;12.43;6.63;;;-0.80;99.90;;;;;;8363862;28;20049;-71
2021/01/19 08:15:04;;;;;;;10.07;5.78;;;-0.70;99.90;;;;;;8381499;28;20079;-71
2021/01/19 08:19:13;;;;;;;7.38;3.47;;;-0.80;99.90;;;;;;8392592;28;20085;-71
2021/01/19 08:23:16;;;;;;;14.88;8.15;;;-0.70;99.90;;;;;;8395437;28;20059;-71
2021/01/19 08:27:19;;;;;;;13.07;8.75;;;-0.60;99.90;;;;;;8384796;28;20658;-72
2021/01/19 08:31:20;;;;;;;10.20;6.00;;;-0.40;99.90;;;;;;8379612;28;20041;-71
2021/01/19 08:35:28;;;;;;;9.75;4.28;;;-0.30;99.90;;;;;;8389680;28;20040;-71
2021/01/19 08:39:29;;;;;;;12.45;6.90;;;-0.30;99.90;;;;;;8383637;28;20589;-71
2021/01/19 08:43:31;;;;;;;13.98;7.65;;;-0.20;99.90;;;;;;8366412;28;20037;-71
2021/01/19 08:47:33;;;;;;;7.03;4.35;;;-0.10;99.90;;;;;;8362614;28;20029;-71
2021/01/19 08:51:35;;;;;;;16.83;8.02;;;0.00;99.90;;;;;;8384315;28;20086;-71
2021/01/19 08:55:35;;;;;;;4.80;3.42;;;0.10;99.90;;;;;;8411383;28;20502;-71
2021/01/19 08:59:36;;;;;;;9.98;5.43;;;0.30;99.90;;;;;;8395825;28;20043;-71
2021/01/19 09:03:37;;;;;;;5.30;3.38;;;0.40;99.90;;;;;;8395630;28;20032;-76
2021/01/19 09:07:37;;;;;;;11.63;6.03;;;0.50;99.90;;;;;;8384145;28;20032;-71
2021/01/19 09:11:38;;;;;;;15.15;6.93;;;0.60;99.90;;;;;;8379571;28;20518;-71
2021/01/19 09:15:40;;;;;;;7.40;3.80;;;1.00;99.90;;;;;;8376829;28;20100;-71
2021/01/19 09:19:40;;;;;;;10.73;5.82;;;1.40;99.90;;;;;;8374088;28;20136;-71
2021/01/19 09:23:41;;;;;;;8.68;4.95;;;1.70;99.90;;;;;;8393837;28;20844;-71
2021/01/19 09:27:41;;;;;;;8.70;5.10;;;1.60;99.90;;;;;;8393867;28;20033;-71
2021/01/19 09:31:42;;;;;;;10.05;5.95;;;2.10;99.90;;;;;;8392408;28;20547;-71
2021/01/19 09:35:44;;;;;;;10.13;5.00;;;1.90;99.90;;;;;;8376692;28;20029;-71
2021/01/19 09:39:46;;;;;;;9.88;6.00;;;1.50;99.90;;;;;;8378897;28;20044;-71
2021/01/19 09:43:52;;;;;;;9.93;5.93;;;1.80;99.90;;;;;;8383647;28;20498;-71
2021/01/19 09:47:53;;;;;;;9.80;5.90;;;2.10;99.90;;;;;;8359794;28;20025;-71
2021/01/19 09:51:54;;;;;;;6.45;4.45;;;2.40;99.90;;;;;;8365447;28;20047;-71
2021/01/19 09:55:56;;;;;;;7.45;4.50;;;2.30;99.90;;;;;;8367309;28;20032;-70
2021/01/19 09:59:57;;;;;;;5.82;2.38;;;1.90;99.90;;;;;;8376591;28;20021;-71
2021/01/19 10:03:58;;;;;;;5.43;3.53;;;1.90;99.90;;;;;;8383745;28;20047;-70
2021/01/19 10:07:58;;;;;;;9.50;5.05;;;2.40;99.90;;;;;;8396759;28;20037;-72
2021/01/19 10:12:01;;;;;;;5.75;3.67;;;2.60;99.90;;;;;;8374898;28;20402;-70
2021/01/19 10:16:03;;;;;;;3.22;2.03;;;2.40;99.90;;;;;;8393152;28;20017;-71
2021/01/19 10:20:29;;;;;;;6.43;2.92;;;1.70;99.90;;;;;;8377243;28;20024;-70
2021/01/19 10:24:30;;;;;;;6.57;3.70;;;1.50;99.90;;;;;;8376038;28;20024;-70
2021/01/19 10:28:44;;;;;;;8.88;3.08;;;1.60;99.90;;;;;;8371961;28;20509;-70
2021/01/19 10:32:49;;;;;;;3.95;2.83;;;1.60;99.90;;;;;;8375446;28;20013;-70
2021/01/19 10:36:55;;;;;;;4.72;2.17;;;1.60;99.90;;;;;;8375210;28;20029;-71
2021/01/19 10:40:56;;;;;;;7.55;4.72;;;1.50;99.90;;;;;;8374918;28;20506;-70
2021/01/19 10:45:02;;;;;;;6.70;2.78;;;1.70;99.90;;;;;;8373087;28;20033;-71
2021/01/19 10:49:04;;;;;;;3.42;2.28;;;1.90;99.90;;;;;;8378600;28;20051;-70
2021/01/19 10:53:05;;;;;;;6.75;3.83;;;1.80;99.90;;;;;;8372733;28;20516;-71
2021/01/19 10:57:07;;;;;;;3.35;1.98;;;1.90;99.90;;;;;;8363656;28;20018;-71
2021/01/19 11:01:07;;;;;;;6.78;3.95;;;1.90;99.90;;;;;;8375775;28;20056;-70
2021/01/19 11:05:09;;;;;;;3.42;1.88;;;1.90;99.90;;;;;;8374539;28;20024;-71
2021/01/19 11:09:09;;;;;;;4.97;2.97;;;1.90;99.90;;;;;;8374843;28;20033;-71
2021/01/19 11:13:10;;;;;;;5.00;2.65;;;1.70;99.90;;;;;;8375047;28;20028;-70
2021/01/19 11:17:10;;;;;;;6.03;2.47;;;1.70;99.90;;;;;;8385415;28;20027;-70
2021/01/19 11:21:11;;;;;;;5.35;2.78;;;1.90;99.90;;;;;;8371836;28;20028;-70
2021/01/19 11:25:13;;;;;;;4.18;2.63;;;2.20;99.90;;;;;;8374073;28;20036;-70
2021/01/19 11:29:14;;;;;;;4.07;1.90;;;2.30;99.90;;;;;;8367922;28;20099;-70
2021/01/19 11:33:15;;;;;;;2.03;1.58;;;2.50;99.90;;;;;;8380666;28;20013;-69
2021/01/19 11:37:15;;;;;;;4.00;2.67;;;2.70;99.90;;;;;;8373894;28;20028;-70
2021/01/19 11:41:22;;;;;;;3.88;2.40;;;2.90;99.90;;;;;;8379343;28;20021;-70
2021/01/19 11:45:24;;;;;;;6.03;2.97;;;3.20;99.90;;;;;;8384746;28;20032;-71
2021/01/19 11:49:24;;;;;;;3.90;2.60;;;3.40;99.90;;;;;;8378830;28;20032;-70
2021/01/19 11:53:26;;;;;;;4.95;2.97;;;3.40;99.90;;;;;;8378215;28;20027;-71
2021/01/19 11:57:26;;;;;;;4.63;3.17;;;4.00;99.90;;;;;;8378477;28;20031;-72
2021/01/19 12:01:27;;;;;;;2.20;1.65;;;3.60;99.90;;;;;;8378886;28;20024;-70
2021/01/19 12:05:27;;;;;;;4.28;2.33;;;3.40;99.90;;;;;;8377052;28;20039;-70
2021/01/19 12:09:28;;;;;;;3.42;2.63;;;3.20;99.90;;;;;;8377104;28;20040;-71
2021/01/19 12:13:31;;;;;;;5.32;2.58;;;3.00;99.90;;;;;;8368576;28;20032;-71
2021/01/19 12:17:31;;;;;;;4.97;3.28;;;2.60;99.90;;;;;;8375841;28;20043;-71
2021/01/19 12:21:32;;;;;;;4.93;2.83;;;2.60;99.90;;;;;;8396481;28;20056;-71
2021/01/19 12:25:32;;;;;;;2.88;0.95;;;2.70;99.90;;;;;;8394150;28;20021;-71
2021/01/19 12:29:33;;;;;;;5.28;3.22;;;2.70;99.90;;;;;;8388884;28;20080;-71
2021/01/19 12:33:33;;;;;;;2.65;1.70;;;2.60;99.90;;;;;;8379690;28;20031;-71
2021/01/19 12:37:34;;;;;;;6.18;2.58;;;2.60;99.90;;;;;;8377231;28;20466;-72
2021/01/19 12:41:35;;;;;;;3.33;1.85;;;2.60;99.90;;;;;;8377109;28;20075;-72
2021/01/19 12:45:39;;;;;;;5.93;3.90;;;2.50;99.90;;;;;;8375184;28;20111;-71
2021/01/19 12:49:39;;;;;;;4.90;2.97;;;2.40;99.90;;;;;;8369243;28;20029;-71
2021/01/19 12:53:40;;;;;;;21.25;12.23;;;2.40;99.90;;;;;;8376745;28;20031;-71
2021/01/19 12:57:41;;;;;;;5.07;3.33;;;2.40;99.90;;;;;;8394530;28;20028;-71
2021/01/19 13:01:42;;;;;;;4.78;3.20;;;2.50;99.90;;;;;;8380721;28;20031;-70
2021/01/19 13:05:42;;;;;;;9.13;6.63;;;2.30;99.90;;;;;;8367333;28;20502;-71
2021/01/19 13:09:43;;;;;;;4.60;2.95;;;2.40;99.90;;;;;;8394273;28;20507;-72
2021/01/19 13:13:43;;;;;;;4.75;2.53;;;2.50;99.90;;;;;;8393592;28;20033;-71
2021/01/19 13:17:44;;;;;;;3.88;2.33;;;2.60;99.90;;;;;;8385272;28;20025;-70
2021/01/19 13:21:44;;;;;;;2.67;1.50;;;2.30;99.90;;;;;;8381948;28;20381;-70
2021/01/19 13:25:45;;;;;;;4.03;2.75;;;2.40;99.90;;;;;;8374827;28;20035;-70
2021/01/19 13:29:47;;;;;;;5.22;2.90;;;2.20;99.90;;;;;;8383986;28;20451;-69
2021/01/19 13:33:48;;;;;;;4.82;3.35;;;2.10;99.90;;;;;;8381067;28;20033;-70
2021/01/19 13:37:48;;;;;;;3.42;2.08;;;2.00;99.90;;;;;;8384782;28;20032;-70
2021/01/19 13:41:57;;;;;;;3.97;2.72;;;2.10;99.90;;;;;;8387070;28;20154;-70
2021/01/19 13:45:57;;;;;;;7.05;5.20;;;2.20;99.90;;;;;;8378607;28;20020;-70
2021/01/19 13:49:58;;;;;;;5.40;3.92;;;2.20;99.90;;;;;;8373795;28;20112;-70
2021/01/19 13:53:59;;;;;;;4.60;3.00;;;2.20;99.90;;;;;;8390776;28;20111;-70
2021/01/19 13:57:59;;;;;;;2.05;1.63;;;2.30;99.90;;;;;;8379458;28;20027;-71
2021/01/19 14:02:00;;;;;;;2.63;1.65;;;2.20;99.90;;;;;;8391382;28;20086;-70
2021/01/19 14:06:01;;;;;;;6.13;3.55;;;2.20;99.90;;;;;;8382633;28;20029;-71
2021/01/19 14:10:02;;;;;;;4.47;2.95;;;2.20;99.90;;;;;;8374924;28;20028;-72
2021/01/19 14:14:05;;;;;;;2.58;1.90;;;2.20;99.90;;;;;;8374928;28;20035;-71
2021/01/19 14:18:06;;;;;;;3.13;2.03;;;2.10;99.90;;;;;;8360715;28;20548;-74
2021/01/19 14:22:07;;;;;;;4.53;2.58;;;2.20;99.90;;;;;;8375773;28;20070;-71
2021/01/19 14:26:07;;;;;;;2.92;2.25;;;2.20;99.90;;;;;;8375547;28;20514;-72
2021/01/19 14:30:09;;;;;;;3.88;2.25;;;2.20;99.90;;;;;;8372881;28;20066;-71
2021/01/19 14:34:09;;;;;;;3.03;1.88;;;2.20;99.90;;;;;;8376549;28;20388;-70
2021/01/19 14:38:10;;;;;;;6.22;2.30;;;2.10;99.90;;;;;;8369138;28;20044;-71
2021/01/19 14:42:17;;;;;;;4.90;2.88;;;2.10;99.90;;;;;;8370096;28;20545;-74
2021/01/19 14:46:23;;;;;;;1.67;1.55;;;2.20;99.90;;;;;;8372427;28;20049;-72
2021/01/19 14:50:24;;;;;;;4.00;2.42;;;2.20;99.90;;;;;;8367189;28;20029;-71
2021/01/19 14:54:24;;;;;;;4.43;3.00;;;2.20;99.90;;;;;;8364441;28;20029;-70
2021/01/19 14:58:25;;;;;;;4.15;2.38;;;2.20;99.90;;;;;;8375812;28;20032;-71
2021/01/19 15:02:25;;;;;;;1.92;1.35;;;2.30;99.90;;;;;;8372933;28;20092;-71
2021/01/19 15:06:26;;;;;;;2.75;2.00;;;2.40;99.90;;;;;;8373444;28;20020;-71
2021/01/19 15:10:27;;;;;;;2.88;2.10;;;2.20;99.90;;;;;;8372993;28;20303;-70
2021/01/19 15:14:34;;;;;;;6.70;4.97;;;2.10;99.90;;;;;;8370833;28;20170;-70
2021/01/19 15:18:34;;;;;;;7.55;3.58;;;2.10;99.90;;;;;;8379699;28;20036;-70
2021/01/19 15:22:35;;;;;;;2.90;2.17;;;2.10;99.90;;;;;;8379165;28;20028;-70
2021/01/19 15:26:36;;;;;;;3.45;1.83;;;2.10;99.90;;;;;;8389856;28;20036;-71
2021/01/19 15:30:36;;;;;;;4.07;2.70;;;2.10;99.90;;;;;;8393009;28;20381;-71
2021/01/19 15:34:37;;;;;;;2.78;1.88;;;2.10;99.90;;;;;;8385637;28;20033;-71
2021/01/19 15:38:37;;;;;;;3.63;1.73;;;2.20;99.90;;;;;;8364562;28;20064;-71
2021/01/19 15:42:41;;;;;;;4.65;3.00;;;2.10;99.90;;;;;;8382418;28;20402;-71
2021/01/19 15:46:41;;;;;;;3.33;1.50;;;2.10;99.90;;;;;;8381804;28;20376;-70
2021/01/19 15:50:42;;;;;;;3.60;2.40;;;2.20;99.90;;;;;;8376024;28;20068;-71
2021/01/19 15:54:44;;;;;;;3.50;1.77;;;2.20;99.90;;;;;;8382207;28;20067;-70
2021/01/19 15:58:44;;;;;;;4.18;2.60;;;2.20;99.90;;;;;;8397500;28;20025;-71
2021/01/19 16:02:45;;;;;;;3.05;1.70;;;2.20;99.90;;;;;;8375095;28;20110;-71
2021/01/19 16:06:45;;;;;;;3.60;1.85;;;2.30;99.90;;;;;;8392612;28;20090;-71
2021/01/19 16:10:46;;;;;;;5.80;2.55;;;2.40;99.90;;;;;;8370611;28;20044;-71
2021/01/19 16:14:47;;;;;;;7.82;3.38;;;2.40;99.90;;;;;;8381109;28;20476;-71
2021/01/19 16:18:48;;;;;;;6.78;4.07;;;2.30;99.90;;;;;;8375023;28;20032;-71
2021/01/19 16:22:48;;;;;;;4.72;2.63;;;2.40;99.90;;;;;;8377755;28;20033;-70
2021/01/19 16:26:55;;;;;;;4.53;1.73;;;2.40;99.90;;;;;;8380650;28;20021;-70
2021/01/19 16:30:58;;;;;;;3.13;2.00;;;2.40;99.90;;;;;;8367409;28;20112;-70
2021/01/19 16:34:58;;;;;;;2.88;1.95;;;2.40;99.90;;;;;;8364273;28;20039;-70
2021/01/19 16:39:01;;;;;;;5.55;3.50;;;2.50;99.90;;;;;;8362379;28;20033;-70
2021/01/19 16:43:02;;;;;;;7.57;5.30;;;2.50;99.90;;;;;;8371700;28;20039;-71
2021/01/19 16:47:02;;;;;;;2.60;2.08;;;2.50;99.90;;;;;;8376664;28;20482;-70
2021/01/19 16:51:03;;;;;;;8.77;4.25;;;2.60;99.90;;;;;;8391768;28;20031;-67
2021/01/19 16:55:04;;;;;;;5.85;3.78;;;2.60;99.90;;;;;;8389411;28;20540;-68
2021/01/19 16:59:06;;;;;;;6.32;3.55;;;2.60;99.90;;;;;;8394093;28;20036;-69
2021/01/19 17:03:07;;;;;;;4.90;2.70;;;2.60;99.90;;;;;;8396457;28;20096;-69
2021/01/19 17:07:07;;;;;;;6.35;2.88;;;2.70;99.90;;;;;;8393624;28;20141;-68
2021/01/19 17:11:08;;;;;;;6.63;4.25;;;2.60;99.90;;;;;;8394518;28;20127;-68
2021/01/19 17:15:09;;;;;;;4.00;2.53;;;2.40;99.90;;;;;;8394753;28;20402;-69
2021/01/19 17:19:10;;;;;;;3.10;1.60;;;2.50;99.90;;;;;;8392516;28;20032;-69
2021/01/19 17:23:11;;;;;;;3.00;1.70;;;2.50;99.90;;;;;;8391164;28;20027;-68
2021/01/19 17:27:12;;;;;;;5.45;1.98;;;2.50;99.90;;;;;;8389903;28;20033;-68
2021/01/19 17:31:13;;;;;;;3.67;2.03;;;2.60;99.90;;;;;;8393438;28;20077;-69
2021/01/19 17:35:14;;;;;;;2.53;2.20;;;2.70;99.90;;;;;;8390285;28;20502;-69
2021/01/19 17:39:15;;;;;;;4.10;2.83;;;2.70;99.90;;;;;;8388589;28;20033;-68
2021/01/19 17:43:15;;;;;;;1.65;1.48;;;2.80;99.90;;;;;;8390184;28;20028;-68
2021/01/19 17:47:17;;;;;;;2.45;1.80;;;2.70;99.90;;;;;;8389355;28;20040;-68
2021/01/19 17:51:22;;;;;;;1.85;1.50;;;2.80;99.90;;;;;;8391413;28;20463;-67
2021/01/19 17:55:23;;;;;;;3.92;2.63;;;2.80;99.90;;;;;;8388221;28;20024;-67
2021/01/19 17:59:23;;;;;;;2.45;1.80;;;2.90;99.90;;;;;;8382049;28;20056;-69
2021/01/19 18:03:28;;;;;;;2.45;1.30;;;3.00;99.90;;;;;;8386719;28;20119;-69
2021/01/19 18:07:28;;;;;;;1.38;1.05;;;3.00;99.90;;;;;;8386565;28;20747;-70
2021/01/19 18:11:29;;;;;;;1.75;1.33;;;3.00;99.90;;;;;;8387572;28;20021;-72
2021/01/19 18:15:30;;;;;;;1.90;1.30;;;3.10;99.90;;;;;;8384323;28;20035;-68
2021/01/19 18:19:31;;;;;;;2.42;1.83;;;3.10;99.90;;;;;;8391122;28;20033;-71
2021/01/19 18:23:34;;;;;;;1.90;1.17;;;3.10;99.90;;;;;;8375342;28;20607;-70
2021/01/19 18:27:34;;;;;;;2.42;1.38;;;3.20;99.90;;;;;;8379434;28;20204;-70
2021/01/19 18:32:01;;;;;;;1.60;1.00;;;3.20;99.90;;;;;;8389375;28;20025;-68
2021/01/19 18:36:03;;;;;;;0.93;0.70;;;3.30;99.90;;;;;;8356204;28;551399;-68
2021/01/19 18:40:04;;;;;;;2.13;1.17;;;3.30;99.90;;;;;;8388669;28;20033;-68
2021/01/19 18:44:05;;;;;;;2.25;1.00;;;3.40;99.90;;;;;;8381196;28;20036;-68
2021/01/19 18:48:06;;;;;;;2.95;1.65;;;3.40;99.90;;;;;;8386253;28;20513;-68
2021/01/19 18:52:07;;;;;;;3.05;1.60;;;3.40;99.90;;;;;;8386601;28;20515;-68
2021/01/19 18:56:07;;;;;;;1.92;1.30;;;3.40;99.90;;;;;;8386754;28;20017;-67
2021/01/19 19:00:09;;;;;;;1.73;1.17;;;3.40;99.90;;;;;;8377200;28;20034;-67
2021/01/19 19:04:10;;;;;;;3.47;1.98;;;3.50;99.90;;;;;;8386609;28;20036;-68
2021/01/19 19:08:10;;;;;;;8.35;3.72;;;3.50;99.90;;;;;;8364239;28;20509;-68
2021/01/19 19:12:11;;;;;;;2.28;1.63;;;3.50;99.90;;;;;;8363147;28;20032;-69
2021/01/19 19:16:11;;;;;;;4.00;1.67;;;3.60;99.90;;;;;;8379434;28;20021;-67
2021/01/19 19:20:13;;;;;;;2.58;1.25;;;3.70;99.90;;;;;;8375385;28;20029;-67
2021/01/19 19:24:15;;;;;;;3.35;1.90;;;3.70;99.90;;;;;;8365232;28;20040;-68
2021/01/19 19:28:17;;;;;;;1.58;1.30;;;3.70;99.90;;;;;;8365183;28;20566;-69
2021/01/19 19:32:22;;;;;;;4.50;1.80;;;3.70;99.90;;;;;;8366491;28;20495;-68
2021/01/19 19:36:25;;;;;;;1.08;1.00;;;3.70;99.90;;;;;;8366028;28;20172;-68
2021/01/19 19:40:26;;;;;;;1.67;1.15;;;3.80;99.90;;;;;;8379270;28;20037;-68
2021/01/19 19:44:29;;;;;;;2.00;1.02;;;3.80;99.90;;;;;;8385152;28;20040;-67
2021/01/19 19:48:29;;;;;;;2.20;1.50;;;3.90;99.90;;;;;;8387312;28;20449;-68
2021/01/19 19:52:30;;;;;;;2.97;1.73;;;3.90;99.90;;;;;;8388068;28;20086;-67
2021/01/19 19:56:36;;;;;;;2.35;1.27;;;3.90;99.90;;;;;;8383802;28;20033;-68
2021/01/19 20:00:36;;;;;;;2.15;1.35;;;3.90;99.90;;;;;;8390298;28;20119;-68
2021/01/19 20:04:37;;;;;;;3.13;1.90;;;3.90;99.90;;;;;;8390859;28;20036;-67
2021/01/19 20:08:37;;;;;;;1.17;0.80;;;3.90;99.90;;;;;;8390848;28;20032;-67
2021/01/19 20:12:38;;;;;;;2.35;1.60;;;3.90;99.90;;;;;;8390630;28;20060;-67
2021/01/19 20:16:39;;;;;;;1.42;1.02;;;3.80;99.90;;;;;;8389524;28;20023;-68
2021/01/19 20:20:40;;;;;;;2.05;1.02;;;3.90;99.90;;;;;;8389246;28;20036;-67
2021/01/19 20:24:40;;;;;;;2.15;1.23;;;3.90;99.90;;;;;;8369856;28;20040;-69
2021/01/19 20:28:41;;;;;;;1.65;1.05;;;3.80;99.90;;;;;;8379270;28;20051;-68
2021/01/19 20:32:42;;;;;;;1.02;0.77;;;3.80;99.90;;;;;;8376591;28;20104;-67
2021/01/19 20:36:42;;;;;;;2.33;1.33;;;3.80;99.90;;;;;;8374287;28;20029;-68
2021/01/19 20:40:43;;;;;;;2.67;1.13;;;3.80;99.90;;;;;;8372135;28;20029;-68
2021/01/19 20:44:44;;;;;;;3.00;1.50;;;3.90;99.90;;;;;;8362265;28;20068;-68
2021/01/19 20:48:44;;;;;;;2.00;1.20;;;3.90;99.90;;;;;;8366163;28;20124;-68
2021/01/19 20:52:45;;;;;;;0.88;0.80;;;3.90;99.90;;;;;;8381168;28;20110;-68
2021/01/19 20:56:45;;;;;;;0.52;0.45;;;3.80;99.90;;;;;;8381588;28;20540;-68
2021/01/19 21:00:46;;;;;;;1.08;0.88;;;3.90;99.90;;;;;;8392938;28;20195;-68
2021/01/19 21:04:46;;;;;;;2.15;1.30;;;3.90;99.90;;;;;;8392404;28;20784;-67
2021/01/19 21:08:47;;;;;;;2.83;1.50;;;4.00;99.90;;;;;;8393083;28;20029;-68